createdAt,value
2023-05-07T00:02:10.169Z,95.60
2023-05-07T00:04:57.408Z,99.90
2023-05-07T00:07:46.554Z,99.90
2023-05-07T00:10:33.693Z,99.90
2023-05-07T00:13:20.749Z,99.90
2023-05-07T00:16:08.008Z,99.90
2023-05-07T00:18:55.511Z,99.50
2023-05-07T00:21:42.780Z,94.80
2023-05-07T00:24:31.206Z,94.90
2023-05-07T00:27:18.552Z,95.00
2023-05-07T00:30:05.920Z,95.00
2023-05-07T00:32:53.251Z,95.10
2023-05-07T00:35:40.440Z,95.20
2023-05-07T00:38:27.687Z,95.40
2023-05-07T00:41:16.302Z,99.90
2023-05-07T00:44:04.248Z,99.90
2023-05-07T00:46:51.685Z,99.90
2023-05-07T00:49:42.326Z,99.90
2023-05-07T00:52:29.929Z,99.90
2023-05-07T00:55:17.323Z,99.90
2023-05-07T00:58:05.858Z,99.90
2023-05-07T01:00:53.483Z,98.90
2023-05-07T01:03:40.970Z,99.40
2023-05-07T01:06:29.301Z,99.90
2023-05-07T01:12:05.381Z,95.40
2023-05-07T01:14:54.575Z,95.80
2023-05-07T01:17:43.719Z,95.80
2023-05-07T01:20:44.835Z,95.80
2023-05-07T01:23:33.425Z,95.90
2023-05-07T01:26:21.630Z,95.90
2023-05-07T01:29:08.703Z,95.90
2023-05-07T01:31:58.017Z,95.90
2023-05-07T01:34:47.507Z,95.90
2023-05-07T01:37:35.158Z,95.90
2023-05-07T01:40:24.748Z,95.90
2023-05-07T01:43:13.388Z,95.90
2023-05-07T01:46:02.177Z,96.00
2023-05-07T01:48:49.557Z,96.50
2023-05-07T01:51:37.719Z,96.10
2023-05-07T01:54:29.813Z,96.10
2023-05-07T01:57:19.442Z,96.20
2023-05-07T02:00:07.838Z,96.00
2023-05-07T02:03:02.991Z,96.20
2023-05-07T02:06:00.278Z,96.30
2023-05-07T02:08:57.951Z,96.30
2023-05-07T02:11:45.379Z,96.70
2023-05-07T02:14:35.414Z,96.30
2023-05-07T02:17:22.772Z,96.40
2023-05-07T02:20:14.635Z,96.40
2023-05-07T02:23:02.942Z,96.40
2023-05-07T02:25:51.429Z,96.50
2023-05-07T02:28:39.088Z,96.50
2023-05-07T02:31:28.481Z,96.50
2023-05-07T02:34:15.825Z,96.50
2023-05-07T02:37:03.440Z,96.50
2023-05-07T02:39:50.361Z,96.50
2023-05-07T02:42:37.799Z,96.50
2023-05-07T02:45:24.929Z,96.50
2023-05-07T02:48:16.218Z,96.50
2023-05-07T02:51:04.881Z,96.50
2023-05-07T02:53:52.760Z,96.60
2023-05-07T02:56:40.068Z,96.60
2023-05-07T02:59:28.092Z,96.60
2023-05-07T03:02:15.075Z,96.70
2023-05-07T03:05:03.294Z,96.70
2023-05-07T03:07:50.245Z,96.70
2023-05-07T03:10:37.960Z,97.10
2023-05-07T03:13:25.273Z,96.80
2023-05-07T03:16:13.733Z,96.80
2023-05-07T03:19:01.390Z,96.90
2023-05-07T03:21:52.175Z,96.80
2023-05-07T03:24:39.186Z,96.90
2023-05-07T03:27:26.272Z,96.80
2023-05-07T03:30:15.131Z,96.90
2023-05-07T03:33:02.382Z,96.90
2023-05-07T03:35:49.405Z,97.00
2023-05-07T03:38:42.307Z,97.00
2023-05-07T03:41:30.789Z,97.00
2023-05-07T03:44:17.842Z,97.00
2023-05-07T03:47:06.589Z,97.00
2023-05-07T03:49:55.054Z,97.00
2023-05-07T03:52:45.629Z,96.90
2023-05-07T03:55:35.322Z,96.90
2023-05-07T03:58:22.586Z,96.90
2023-05-07T04:01:10.073Z,96.90
2023-05-07T04:03:57.652Z,96.90
2023-05-07T04:06:45.853Z,96.90
2023-05-07T04:09:33.649Z,96.90
2023-05-07T04:12:22.247Z,96.90
2023-05-07T04:15:10.317Z,96.90
2023-05-07T04:17:57.663Z,97.10
2023-05-07T04:20:46.233Z,97.10
2023-05-07T04:23:35.234Z,97.10
2023-05-07T04:26:25.473Z,97.00
2023-05-07T04:29:14.229Z,97.10
2023-05-07T04:32:01.881Z,97.00
2023-05-07T04:34:49.356Z,97.00
2023-05-07T04:37:37.141Z,97.00
2023-05-07T04:40:25.305Z,97.10
2023-05-07T04:43:12.716Z,97.10
2023-05-07T04:46:07.273Z,97.10
2023-05-07T04:48:55.275Z,97.00
2023-05-07T04:51:45.051Z,97.10
2023-05-07T04:54:33.986Z,97.40
2023-05-07T04:57:20.801Z,97.10
2023-05-07T05:00:11.227Z,97.00
2023-05-07T05:03:01.832Z,97.00
2023-05-07T05:05:52.806Z,97.00
2023-05-07T05:08:41.759Z,97.00
2023-05-07T05:11:30.549Z,96.90
2023-05-07T05:14:17.372Z,96.90
2023-05-07T05:17:04.565Z,97.00
2023-05-07T05:19:53.203Z,97.00
2023-05-07T05:22:40.464Z,97.10
2023-05-07T05:25:29.639Z,97.10
2023-05-07T05:28:18.159Z,97.00
2023-05-07T05:31:05.297Z,97.10
2023-05-07T05:33:56.571Z,96.90
2023-05-07T05:36:46.150Z,97.00
2023-05-07T05:39:34.758Z,97.00
2023-05-07T05:42:22.747Z,96.80
2023-05-07T05:45:11.221Z,96.90
2023-05-07T05:48:00.201Z,96.70
2023-05-07T05:50:47.877Z,96.40
2023-05-07T05:53:39.203Z,96.30
2023-05-07T05:56:26.864Z,96.10
2023-05-07T05:59:14.364Z,96.00
2023-05-07T06:02:02.038Z,95.90
2023-05-07T06:04:50.199Z,95.80
2023-05-07T06:07:40.381Z,95.70
2023-05-07T06:10:29.302Z,95.80
2023-05-07T06:13:16.466Z,95.10
2023-05-07T06:16:04.325Z,94.90
2023-05-07T06:18:51.215Z,94.40
2023-05-07T06:21:38.451Z,94.40
2023-05-07T06:24:26.280Z,94.30
2023-05-07T06:27:15.879Z,94.00
2023-05-07T06:30:04.394Z,93.60
2023-05-07T06:32:51.962Z,93.20
2023-05-07T06:35:40.300Z,93.00
2023-05-07T06:38:27.386Z,92.60
2023-05-07T06:41:15.167Z,92.20
2023-05-07T06:44:04.371Z,91.90
2023-05-07T06:46:57.525Z,91.40
2023-05-07T06:49:44.986Z,91.00
2023-05-07T06:52:36.703Z,90.70
2023-05-07T06:55:26.884Z,90.40
2023-05-07T06:58:15.392Z,90.00
2023-05-07T07:01:04.226Z,89.20
2023-05-07T07:03:52.983Z,89.20
2023-05-07T07:06:41.992Z,87.10
2023-05-07T07:09:31.785Z,86.00
2023-05-07T07:12:21.356Z,86.20
2023-05-07T07:15:09.514Z,84.50
2023-05-07T07:17:57.800Z,83.60
2023-05-07T07:20:46.432Z,83.10
2023-05-07T07:23:34.535Z,81.80
2023-05-07T07:26:22.489Z,81.70
2023-05-07T07:29:10.148Z,80.90
2023-05-07T07:31:57.881Z,79.60
2023-05-07T07:34:46.781Z,78.80
2023-05-07T07:37:34.557Z,77.20
2023-05-07T07:43:09.671Z,74.40
2023-05-07T07:45:57.542Z,72.50
2023-05-07T07:48:45.511Z,69.40
2023-05-07T07:51:34.842Z,67.40
2023-05-07T07:54:21.966Z,63.40
2023-05-07T07:57:09.573Z,61.00
2023-05-07T07:59:58.320Z,59.10
2023-05-07T08:02:45.300Z,57.10
2023-05-07T08:05:40.866Z,54.40
2023-05-07T08:08:29.698Z,52.30
2023-05-07T08:11:17.271Z,50.40
2023-05-07T08:14:04.810Z,48.10
2023-05-07T08:16:52.354Z,47.00
2023-05-07T08:19:39.385Z,45.00
2023-05-07T08:22:29.501Z,43.50
2023-05-07T08:25:18.155Z,42.80
2023-05-07T08:28:06.309Z,42.60
2023-05-07T08:30:54.012Z,40.40
2023-05-07T08:33:41.425Z,40.90
2023-05-07T08:36:29.688Z,40.00
2023-05-07T08:39:18.599Z,40.00
2023-05-07T08:42:12.032Z,39.90
2023-05-07T08:45:03.289Z,37.60
2023-05-07T08:47:54.226Z,37.00
2023-05-07T08:50:43.492Z,38.10
2023-05-07T08:53:32.259Z,39.20
2023-05-07T08:56:22.444Z,38.80
2023-05-07T08:59:13.191Z,38.00
2023-05-07T09:02:01.071Z,35.80
2023-05-07T09:04:48.400Z,36.00
2023-05-07T09:07:35.705Z,35.40
2023-05-07T09:10:26.017Z,36.10
2023-05-07T09:13:15.841Z,36.70
2023-05-07T09:16:14.997Z,36.60
2023-05-07T09:19:05.772Z,36.40
2023-05-07T09:22:02.420Z,35.60
2023-05-07T09:24:55.207Z,36.20
2023-05-07T09:27:46.176Z,35.40
2023-05-07T09:30:34.765Z,34.50
2023-05-07T09:33:30.783Z,35.20
2023-05-07T09:36:20.295Z,34.90
2023-05-07T09:39:07.676Z,35.20
2023-05-07T09:41:55.734Z,35.90
2023-05-07T09:44:51.911Z,36.20
2023-05-07T09:47:46.985Z,37.80
2023-05-07T09:50:44.270Z,36.70
2023-05-07T09:53:33.165Z,35.80
2023-05-07T09:56:24.185Z,37.70
2023-05-07T09:59:15.108Z,36.40
2023-05-07T10:02:05.096Z,37.30
2023-05-07T10:04:57.519Z,39.00
2023-05-07T10:07:52.691Z,40.10
2023-05-07T10:10:43.350Z,39.40
2023-05-07T10:13:35.905Z,41.30
2023-05-07T10:16:23.846Z,42.10
2023-05-07T10:19:12.079Z,45.70
2023-05-07T10:22:06.903Z,46.10
2023-05-07T10:25:05.726Z,45.40
2023-05-07T10:27:57.938Z,45.50
2023-05-07T10:30:58.175Z,47.20
2023-05-07T10:33:50.381Z,48.90
2023-05-07T10:36:40.644Z,48.80
2023-05-07T10:39:29.829Z,48.50
2023-05-07T10:42:19.668Z,51.10
2023-05-07T10:45:17.926Z,49.20
2023-05-07T10:51:23.410Z,49.90
2023-05-07T10:54:25.979Z,48.50
2023-05-07T10:57:39.379Z,49.00
2023-05-07T11:00:47.930Z,49.50
2023-05-07T11:04:14.071Z,51.50
2023-05-07T11:07:23.719Z,53.50
2023-05-07T11:10:12.261Z,51.60
2023-05-07T11:13:11.250Z,51.30
2023-05-07T11:16:07.695Z,51.50
2023-05-07T11:19:00.814Z,51.70
2023-05-07T11:21:55.427Z,51.60
2023-05-07T11:24:57.368Z,52.10
2023-05-07T11:27:45.509Z,52.20
2023-05-07T11:30:34.578Z,52.90
2023-05-07T11:33:22.232Z,51.90
2023-05-07T11:36:12.129Z,50.60
2023-05-07T11:39:06.869Z,51.10
2023-05-07T11:41:53.892Z,51.60
2023-05-07T11:44:46.981Z,52.60
2023-05-07T11:47:51.235Z,53.00
2023-05-07T11:50:38.091Z,53.90
2023-05-07T11:53:27.815Z,53.00
2023-05-07T11:56:16.769Z,54.20
2023-05-07T11:59:04.099Z,53.00
2023-05-07T12:01:51.458Z,52.60
2023-05-07T12:04:40.968Z,51.70
2023-05-07T12:07:28.338Z,51.40
2023-05-07T12:10:15.910Z,51.30
2023-05-07T12:13:03.305Z,52.60
2023-05-07T12:15:53.456Z,52.50
2023-05-07T12:18:40.967Z,53.20
2023-05-07T12:21:29.559Z,53.60
2023-05-07T12:24:17.188Z,52.20
2023-05-07T12:27:04.968Z,52.10
2023-05-07T12:29:53.108Z,51.60
2023-05-07T12:32:40.351Z,51.80
2023-05-07T12:35:30.778Z,52.00
2023-05-07T12:38:20.613Z,53.20
2023-05-07T12:41:09.327Z,52.30
2023-05-07T12:43:59.757Z,52.00
2023-05-07T12:46:48.854Z,50.60
2023-05-07T12:49:39.874Z,51.60
2023-05-07T12:52:27.446Z,51.00
2023-05-07T12:55:18.031Z,51.20
2023-05-07T12:58:04.886Z,52.30
2023-05-07T13:00:52.939Z,51.30
2023-05-07T13:03:40.913Z,50.30
2023-05-07T13:06:28.563Z,51.10
2023-05-07T13:09:16.021Z,52.30
2023-05-07T13:12:05.046Z,51.30
2023-05-07T13:14:52.085Z,50.90
2023-05-07T13:17:39.641Z,51.60
2023-05-07T13:20:26.444Z,50.00
2023-05-07T13:23:13.684Z,50.70
2023-05-07T13:26:04.143Z,50.00
2023-05-07T13:28:55.634Z,50.10
2023-05-07T13:31:45.263Z,49.70
2023-05-07T13:34:32.730Z,48.90
2023-05-07T13:37:21.488Z,49.20
2023-05-07T13:40:10.684Z,49.10
2023-05-07T13:43:00.803Z,49.10
2023-05-07T13:45:49.443Z,48.80
2023-05-07T13:48:36.398Z,48.50
2023-05-07T13:51:23.834Z,48.30
2023-05-07T13:54:11.091Z,49.70
2023-05-07T13:56:58.242Z,49.50
2023-05-07T13:59:45.234Z,48.40
2023-05-07T14:02:34.025Z,48.10
2023-05-07T14:05:22.924Z,48.80
2023-05-07T14:08:10.483Z,48.20
2023-05-07T14:10:57.863Z,47.40
2023-05-07T14:13:45.166Z,46.80
2023-05-07T14:16:32.481Z,46.00
2023-05-07T14:19:21.497Z,48.10
2023-05-07T14:22:08.626Z,48.80
2023-05-07T14:25:05.796Z,49.00
2023-05-07T14:28:02.168Z,47.70
2023-05-07T14:30:49.638Z,47.50
2023-05-07T14:33:36.826Z,47.50
2023-05-07T14:36:27.177Z,48.50
2023-05-07T14:39:14.970Z,48.40
2023-05-07T14:42:02.199Z,48.30
2023-05-07T14:44:49.574Z,50.90
2023-05-07T14:47:37.611Z,51.50
2023-05-07T14:50:24.745Z,50.10
2023-05-07T14:53:13.266Z,49.20
2023-05-07T14:56:01.402Z,49.50
2023-05-07T14:58:50.147Z,50.20
2023-05-07T15:01:37.706Z,52.00
2023-05-07T15:04:26.314Z,51.40
2023-05-07T15:07:16.197Z,51.80
2023-05-07T15:10:04.769Z,53.10
2023-05-07T15:12:51.745Z,53.50
2023-05-07T15:15:38.867Z,53.20
2023-05-07T15:18:27.227Z,53.10
2023-05-07T15:21:14.581Z,53.60
2023-05-07T15:24:02.141Z,53.40
2023-05-07T15:26:51.052Z,54.70
2023-05-07T15:29:38.453Z,54.10
2023-05-07T15:32:26.536Z,54.20
2023-05-07T15:35:14.278Z,54.60
2023-05-07T15:38:02.448Z,55.10
2023-05-07T15:40:49.767Z,54.50
2023-05-07T15:43:47.862Z,54.20
2023-05-07T15:46:35.022Z,55.20
2023-05-07T15:49:23.130Z,55.90
2023-05-07T15:52:12.026Z,55.30
2023-05-07T15:55:01.422Z,55.70
2023-05-07T15:57:48.921Z,55.40
2023-05-07T16:00:37.592Z,55.40
2023-05-07T16:03:25.296Z,55.30
2023-05-07T16:06:13.409Z,55.50
2023-05-07T16:09:00.914Z,55.60
2023-05-07T16:11:48.214Z,55.90
2023-05-07T16:14:35.369Z,55.80
2023-05-07T16:17:24.094Z,56.20
2023-05-07T16:20:13.367Z,55.90
2023-05-07T16:23:00.553Z,56.00
2023-05-07T16:25:47.948Z,56.00
2023-05-07T16:28:35.338Z,55.90
2023-05-07T16:31:22.628Z,56.40
2023-05-07T16:34:11.524Z,56.10
2023-05-07T16:36:58.627Z,55.80
2023-05-07T16:39:45.987Z,55.90
2023-05-07T16:42:33.516Z,55.60
2023-05-07T16:45:20.846Z,55.40
2023-05-07T16:48:08.879Z,55.80
2023-05-07T16:50:59.477Z,55.90
2023-05-07T16:53:46.880Z,56.00
2023-05-07T16:56:34.142Z,56.10
2023-05-07T16:59:21.522Z,56.20
2023-05-07T17:02:09.120Z,56.40
2023-05-07T17:04:56.281Z,56.70
2023-05-07T17:07:44.781Z,57.80
2023-05-07T17:10:31.726Z,58.00
2023-05-07T17:13:19.234Z,57.60
2023-05-07T17:16:06.915Z,57.50
2023-05-07T17:18:54.068Z,57.60
2023-05-07T17:21:41.427Z,57.70
2023-05-07T17:24:30.142Z,57.60
2023-05-07T17:27:17.436Z,58.30
2023-05-07T17:30:04.909Z,58.20
2023-05-07T17:32:52.163Z,58.20
2023-05-07T17:35:39.122Z,58.40
2023-05-07T17:38:26.152Z,58.40
2023-05-07T17:41:14.810Z,58.50
2023-05-07T17:44:02.037Z,58.50
2023-05-07T17:46:53.560Z,58.70
2023-05-07T17:49:44.436Z,59.00
2023-05-07T17:52:34.179Z,59.20
2023-05-07T17:55:26.712Z,59.50
2023-05-07T17:58:15.098Z,59.70
2023-05-07T18:01:02.153Z,60.40
2023-05-07T18:03:49.335Z,60.20
2023-05-07T18:06:36.997Z,60.40
2023-05-07T18:09:24.055Z,60.50
2023-05-07T18:12:11.658Z,60.70
2023-05-07T18:15:00.116Z,61.60
2023-05-07T18:17:47.265Z,61.80
2023-05-07T18:20:34.520Z,61.60
2023-05-07T18:23:21.612Z,61.70
2023-05-07T18:26:08.912Z,62.40
2023-05-07T18:28:56.127Z,63.20
2023-05-07T18:31:44.919Z,62.30
2023-05-07T18:34:31.735Z,62.50
2023-05-07T18:37:19.168Z,62.70
2023-05-07T18:40:07.072Z,63.40
2023-05-07T18:42:54.529Z,63.10
2023-05-07T18:45:42.600Z,63.30
2023-05-07T18:48:31.362Z,63.50
2023-05-07T18:51:18.613Z,63.80
2023-05-07T18:54:06.393Z,63.90
2023-05-07T18:56:53.455Z,63.90
2023-05-07T18:59:40.812Z,64.50
2023-05-07T19:02:27.764Z,64.50
2023-05-07T19:05:18.530Z,64.60
2023-05-07T19:08:06.566Z,64.60
2023-05-07T19:10:56.118Z,64.90
2023-05-07T19:13:44.302Z,65.80
2023-05-07T19:16:31.937Z,65.50
2023-05-07T19:19:19.675Z,66.40
2023-05-07T19:22:08.255Z,67.10
2023-05-07T19:24:55.310Z,68.10
2023-05-07T19:27:42.536Z,68.00
2023-05-07T19:30:29.556Z,67.50
2023-05-07T19:33:16.938Z,68.30
2023-05-07T19:36:04.270Z,68.40
2023-05-07T19:38:53.919Z,68.60
2023-05-07T19:41:41.972Z,68.90
2023-05-07T19:44:29.032Z,69.60
2023-05-07T19:47:17.636Z,70.10
2023-05-07T19:50:05.192Z,70.70
2023-05-07T19:52:52.514Z,71.60
2023-05-07T19:55:40.880Z,72.50
2023-05-07T19:58:27.773Z,73.40
2023-05-07T20:01:14.909Z,74.00
2023-05-07T20:04:01.925Z,74.60
2023-05-07T20:06:49.258Z,75.40
2023-05-07T20:09:36.536Z,76.20
2023-05-07T20:12:24.732Z,76.50
2023-05-07T20:15:12.482Z,77.10
2023-05-07T20:17:59.541Z,77.40
2023-05-07T20:20:46.846Z,77.80
2023-05-07T20:23:33.739Z,78.20
2023-05-07T20:26:21.625Z,78.50
2023-05-07T20:29:10.295Z,79.00
2023-05-07T20:32:06.898Z,79.20
2023-05-07T20:34:54.366Z,79.90
2023-05-07T20:37:41.980Z,80.20
2023-05-07T20:40:29.140Z,80.40
2023-05-07T20:43:16.369Z,80.60
2023-05-07T20:46:05.947Z,80.90
2023-05-07T20:48:53.110Z,81.00
2023-05-07T20:51:40.442Z,81.20
2023-05-07T20:54:28.301Z,81.60
2023-05-07T20:57:15.699Z,81.80
2023-05-07T21:00:04.045Z,82.10
2023-05-07T21:02:53.371Z,82.60
2023-05-07T21:05:40.519Z,82.80
2023-05-07T21:08:27.986Z,83.00
2023-05-07T21:11:15.390Z,83.30
2023-05-07T21:14:02.453Z,83.40
2023-05-07T21:16:49.820Z,83.80
2023-05-07T21:19:38.748Z,83.80
2023-05-07T21:22:26.029Z,84.00
2023-05-07T21:25:13.598Z,84.30
2023-05-07T21:28:01.291Z,84.50
2023-05-07T21:30:48.201Z,84.80
2023-05-07T21:33:35.525Z,84.90
2023-05-07T21:36:23.667Z,84.90
2023-05-07T21:39:11.042Z,85.10
2023-05-07T21:41:58.618Z,85.20
2023-05-07T21:44:45.600Z,85.40
2023-05-07T21:47:32.546Z,86.40
2023-05-07T21:50:20.609Z,85.50
2023-05-07T21:53:08.963Z,85.70
2023-05-07T21:55:56.070Z,85.80
2023-05-07T21:58:43.391Z,86.00
2023-05-07T22:01:30.625Z,86.10
2023-05-07T22:04:17.777Z,86.20
2023-05-07T22:07:04.883Z,86.30
2023-05-07T22:09:53.504Z,86.50
2023-05-07T22:12:40.791Z,86.60
2023-05-07T22:15:27.835Z,86.80
2023-05-07T22:18:14.941Z,86.90
2023-05-07T22:21:02.289Z,87.20
2023-05-07T22:23:49.677Z,87.20
2023-05-07T22:26:38.245Z,87.20
2023-05-07T22:29:25.908Z,87.30
2023-05-07T22:32:13.064Z,87.40
2023-05-07T22:35:00.144Z,87.90
2023-05-07T22:37:47.197Z,87.70
2023-05-07T22:40:34.361Z,88.20
2023-05-07T22:43:23.031Z,88.20
2023-05-07T22:46:10.353Z,88.70
2023-05-07T22:48:57.703Z,89.00
2023-05-07T22:51:44.533Z,89.40
2023-05-07T22:54:32.608Z,89.40
2023-05-07T22:57:19.901Z,89.40
2023-05-07T23:00:09.917Z,89.80
2023-05-07T23:02:57.048Z,90.00
2023-05-07T23:05:44.513Z,90.00
2023-05-07T23:08:31.751Z,90.10
2023-05-07T23:11:18.621Z,90.10
2023-05-07T23:14:05.650Z,90.20
2023-05-07T23:16:54.498Z,90.00
2023-05-07T23:19:41.940Z,90.10
2023-05-07T23:22:29.111Z,90.20
2023-05-07T23:25:16.988Z,90.40
2023-05-07T23:28:04.171Z,90.40
2023-05-07T23:30:51.293Z,90.50
2023-05-07T23:33:40.316Z,90.40
2023-05-07T23:36:28.640Z,90.50
2023-05-07T23:39:15.964Z,90.50
2023-05-07T23:42:04.085Z,90.20
2023-05-07T23:44:52.027Z,90.90
2023-05-07T23:47:39.010Z,90.50
2023-05-07T23:50:27.615Z,90.20
2023-05-07T23:53:14.470Z,90.40
2023-05-07T23:56:01.590Z,90.50
2023-05-07T23:58:49.048Z,90.10
